createdAt,value
2023-11-25T00:01:24.595Z,91.18
2023-11-25T00:03:41.635Z,90.71
2023-11-25T00:05:58.616Z,92.05
2023-11-25T00:08:15.530Z,90.98
2023-11-25T00:10:32.429Z,91.50
2023-11-25T00:12:49.653Z,91.27
2023-11-25T00:15:06.564Z,91.15
2023-11-25T00:17:23.479Z,91.57
2023-11-25T00:19:40.412Z,90.52
2023-11-25T00:21:57.321Z,91.12
2023-11-25T00:24:14.240Z,89.75
2023-11-25T00:26:31.095Z,90.20
2023-11-25T00:28:47.933Z,89.71
2023-11-25T00:31:04.872Z,88.25
2023-11-25T00:33:21.869Z,88.88
2023-11-25T00:35:38.729Z,88.19
2023-11-25T00:37:55.601Z,88.47
2023-11-25T00:40:12.557Z,87.92
2023-11-25T00:42:29.462Z,87.02
2023-11-25T00:44:46.327Z,87.07
2023-11-25T00:47:03.316Z,88.01
2023-11-25T00:49:20.313Z,88.16
2023-11-25T00:51:37.291Z,88.05
2023-11-25T00:53:54.236Z,88.37
2023-11-25T00:56:11.131Z,88.27
2023-11-25T00:58:28.029Z,89.33
2023-11-25T01:00:44.978Z,88.66
2023-11-25T01:03:01.910Z,89.42
2023-11-25T01:05:19.254Z,89.57
2023-11-25T01:07:36.173Z,89.95
2023-11-25T01:09:53.129Z,89.53
2023-11-25T01:12:10.016Z,88.40
2023-11-25T01:14:26.892Z,87.76
2023-11-25T01:16:43.832Z,87.98
2023-11-25T01:19:00.763Z,87.42
2023-11-25T01:21:17.667Z,87.55
2023-11-25T01:23:34.525Z,88.33
2023-11-25T01:25:51.414Z,88.42
2023-11-25T01:28:08.349Z,88.91
2023-11-25T01:30:25.244Z,88.60
2023-11-25T01:32:42.184Z,86.72
2023-11-25T01:34:59.131Z,88.39
2023-11-25T01:37:16.056Z,87.69
2023-11-25T01:39:32.952Z,86.42
2023-11-25T01:41:49.883Z,87.62
2023-11-25T01:44:06.776Z,88.02
2023-11-25T01:46:23.747Z,87.36
2023-11-25T01:48:40.624Z,86.31
2023-11-25T01:50:57.717Z,86.31
2023-11-25T01:53:14.555Z,86.21
2023-11-25T01:55:31.551Z,86.55
2023-11-25T01:57:48.414Z,86.29
2023-11-25T02:00:05.295Z,85.74
2023-11-25T02:02:22.336Z,86.01
2023-11-25T02:04:39.472Z,85.52
2023-11-25T02:06:56.364Z,86.00
2023-11-25T02:09:13.266Z,85.37
2023-11-25T02:11:30.143Z,84.69
2023-11-25T02:13:47.089Z,85.14
2023-11-25T02:16:04.191Z,85.44
2023-11-25T02:18:21.062Z,84.95
2023-11-25T02:20:37.973Z,85.14
2023-11-25T02:22:54.834Z,86.05
2023-11-25T02:25:11.732Z,85.68
2023-11-25T02:27:28.612Z,86.51
2023-11-25T02:29:45.476Z,85.70
2023-11-25T02:32:02.515Z,85.12
2023-11-25T02:34:19.554Z,85.97
2023-11-25T02:36:36.427Z,85.60
2023-11-25T02:38:53.281Z,85.35
2023-11-25T02:41:10.203Z,84.77
2023-11-25T02:43:27.166Z,85.86
2023-11-25T02:45:44.097Z,85.61
2023-11-25T02:48:01.079Z,85.88
2023-11-25T02:50:18.089Z,85.37
2023-11-25T02:52:35.054Z,85.53
2023-11-25T02:54:52.024Z,85.77
2023-11-25T02:57:08.899Z,85.41
2023-11-25T02:59:25.863Z,86.48
2023-11-25T03:01:42.863Z,85.65
2023-11-25T03:03:59.795Z,86.64
2023-11-25T03:06:16.709Z,86.59
2023-11-25T03:08:33.589Z,86.50
2023-11-25T03:10:50.485Z,86.53
2023-11-25T03:13:07.498Z,87.49
2023-11-25T03:15:24.420Z,86.89
2023-11-25T03:17:41.360Z,87.87
2023-11-25T03:19:58.242Z,88.06
2023-11-25T03:22:15.128Z,88.12
2023-11-25T03:24:31.996Z,88.46
2023-11-25T03:26:48.915Z,87.82
2023-11-25T03:29:05.771Z,88.26
2023-11-25T03:31:22.667Z,88.80
2023-11-25T03:33:39.554Z,88.79
2023-11-25T03:35:56.483Z,88.42
2023-11-25T03:38:13.410Z,89.11
2023-11-25T03:40:30.282Z,89.37
2023-11-25T03:42:47.225Z,88.79
2023-11-25T03:45:04.183Z,89.07
2023-11-25T03:47:21.089Z,89.96
2023-11-25T03:49:38.092Z,89.68
2023-11-25T03:51:55.033Z,89.52
2023-11-25T03:54:12.015Z,89.46
2023-11-25T03:56:28.907Z,90.25
2023-11-25T03:58:45.860Z,90.05
2023-11-25T04:01:02.866Z,89.95
2023-11-25T04:03:19.812Z,89.39
2023-11-25T04:05:36.735Z,90.09
2023-11-25T04:07:59.358Z,89.99
2023-11-25T04:10:24.733Z,89.95
2023-11-25T04:12:41.967Z,89.74
2023-11-25T04:14:58.945Z,89.69
2023-11-25T04:17:16.076Z,90.26
2023-11-25T04:19:33.098Z,90.37
2023-11-25T04:21:50.042Z,90.54
2023-11-25T04:24:06.946Z,90.21
2023-11-25T04:26:23.806Z,90.39
2023-11-25T04:28:40.837Z,90.48
2023-11-25T04:30:57.797Z,90.32
2023-11-25T04:33:14.675Z,90.35
2023-11-25T04:35:31.546Z,90.37
2023-11-25T04:37:51.391Z,89.97
2023-11-25T04:40:08.412Z,90.24
2023-11-25T04:42:25.333Z,90.05
2023-11-25T04:44:42.215Z,89.93
2023-11-25T04:46:59.187Z,89.90
2023-11-25T04:49:26.924Z,90.10
2023-11-25T04:51:43.827Z,90.19
2023-11-25T04:54:00.736Z,90.18
2023-11-25T04:56:17.595Z,90.56
2023-11-25T04:58:34.568Z,90.28
2023-11-25T05:00:51.515Z,90.08
2023-11-25T05:03:08.468Z,90.11
2023-11-25T05:05:26.402Z,90.31
2023-11-25T05:07:43.491Z,90.02
2023-11-25T05:10:00.515Z,90.18
2023-11-25T05:12:17.445Z,90.08
2023-11-25T05:14:34.343Z,89.86
2023-11-25T05:16:51.430Z,90.27
2023-11-25T05:19:08.438Z,90.18
2023-11-25T05:21:25.395Z,89.96
2023-11-25T05:23:42.410Z,90.23
2023-11-25T05:25:59.313Z,90.25
2023-11-25T05:28:16.251Z,90.16
2023-11-25T05:30:33.283Z,90.27
2023-11-25T05:32:50.278Z,90.29
2023-11-25T05:35:07.206Z,90.16
2023-11-25T05:37:24.115Z,90.30
2023-11-25T05:39:41.043Z,90.12
2023-11-25T05:41:57.961Z,90.22
2023-11-25T05:44:14.929Z,90.71
2023-11-25T05:46:31.943Z,90.22
2023-11-25T05:48:48.926Z,90.14
2023-11-25T05:51:05.796Z,89.97
2023-11-25T05:53:22.734Z,90.14
2023-11-25T05:55:39.767Z,89.96
2023-11-25T05:57:59.923Z,90.09
2023-11-25T06:00:17.661Z,90.30
2023-11-25T06:02:34.632Z,90.37
2023-11-25T06:04:51.743Z,90.11
2023-11-25T06:07:08.756Z,90.36
2023-11-25T06:09:25.663Z,89.94
2023-11-25T06:11:42.602Z,90.39
2023-11-25T06:13:59.500Z,89.96
2023-11-25T06:16:23.198Z,90.45
2023-11-25T06:18:40.240Z,90.12
2023-11-25T06:20:57.126Z,89.98
2023-11-25T06:23:14.065Z,90.74
2023-11-25T06:25:31.004Z,90.94
2023-11-25T06:27:48.583Z,90.69
2023-11-25T06:30:05.681Z,90.62
2023-11-25T06:32:28.990Z,90.99
2023-11-25T06:34:46.248Z,90.98
2023-11-25T06:37:04.185Z,91.27
2023-11-25T06:39:26.122Z,91.16
2023-11-25T06:41:44.048Z,91.19
2023-11-25T06:44:01.306Z,91.10
2023-11-25T06:46:18.339Z,90.98
2023-11-25T06:48:35.405Z,91.13
2023-11-25T06:50:52.387Z,90.78
2023-11-25T06:53:09.361Z,90.40
2023-11-25T06:55:26.299Z,90.25
2023-11-25T06:57:43.380Z,90.49
2023-11-25T07:00:00.293Z,90.37
2023-11-25T07:02:17.253Z,90.64
2023-11-25T07:04:34.246Z,90.03
2023-11-25T07:06:51.245Z,90.60
2023-11-25T07:09:08.247Z,90.84
2023-11-25T07:11:25.198Z,91.05
2023-11-25T07:13:42.195Z,91.42
2023-11-25T07:15:59.231Z,91.13
2023-11-25T07:18:16.201Z,91.73
2023-11-25T07:20:33.207Z,92.04
2023-11-25T07:22:50.214Z,91.96
2023-11-25T07:25:07.274Z,92.31
2023-11-25T07:27:27.125Z,92.46
2023-11-25T07:29:44.564Z,92.44
2023-11-25T07:32:01.611Z,92.36
2023-11-25T07:34:18.667Z,93.03
2023-11-25T07:36:35.664Z,92.94
2023-11-25T07:38:52.596Z,92.95
2023-11-25T07:41:09.554Z,93.27
2023-11-25T07:43:26.573Z,93.49
2023-11-25T07:45:43.455Z,93.70
2023-11-25T07:48:00.421Z,93.90
2023-11-25T07:50:17.413Z,93.49
2023-11-25T07:52:34.482Z,94.00
2023-11-25T07:54:51.478Z,93.49
2023-11-25T07:57:08.445Z,93.67
2023-11-25T07:59:25.426Z,93.85
2023-11-25T08:01:42.507Z,94.34
2023-11-25T08:03:59.515Z,94.00
2023-11-25T08:06:16.455Z,94.28
2023-11-25T08:08:33.363Z,94.64
2023-11-25T08:10:50.374Z,95.02
2023-11-25T08:13:07.272Z,94.94
2023-11-25T08:15:24.173Z,94.33
2023-11-25T08:17:41.110Z,94.79
2023-11-25T08:19:58.085Z,94.46
2023-11-25T08:22:15.004Z,94.88
2023-11-25T08:24:31.878Z,94.33
2023-11-25T08:26:48.780Z,94.50
2023-11-25T08:29:05.724Z,94.19
2023-11-25T08:31:22.700Z,94.24
2023-11-25T08:33:39.700Z,94.56
2023-11-25T08:35:56.571Z,93.84
2023-11-25T08:38:13.461Z,94.01
2023-11-25T08:40:30.356Z,94.22
2023-11-25T08:42:47.537Z,94.38
2023-11-25T08:45:04.531Z,93.90
2023-11-25T08:47:21.401Z,93.00
2023-11-25T08:49:38.392Z,91.56
2023-11-25T08:51:55.340Z,91.64
2023-11-25T08:54:12.440Z,91.03
2023-11-25T08:56:33.145Z,90.76
2023-11-25T08:58:56.688Z,90.80
2023-11-25T09:01:18.196Z,90.22
2023-11-25T09:03:35.358Z,89.46
2023-11-25T09:05:52.470Z,89.99
2023-11-25T09:08:09.359Z,90.64
2023-11-25T09:10:26.900Z,90.47
2023-11-25T09:12:43.943Z,89.61
2023-11-25T09:15:01.032Z,89.33
2023-11-25T09:17:18.168Z,88.71
2023-11-25T09:19:35.072Z,88.96
2023-11-25T09:21:51.999Z,87.53
2023-11-25T09:24:08.903Z,88.46
2023-11-25T09:26:25.874Z,89.24
2023-11-25T09:28:42.832Z,89.03
2023-11-25T09:30:59.756Z,89.46
2023-11-25T09:33:16.690Z,88.66
2023-11-25T09:35:33.570Z,88.38
2023-11-25T09:37:50.517Z,89.53
2023-11-25T09:40:07.459Z,88.41
2023-11-25T09:42:24.467Z,89.77
2023-11-25T09:44:41.369Z,90.29
2023-11-25T09:46:58.396Z,89.18
2023-11-25T09:49:15.345Z,89.74
2023-11-25T09:51:32.281Z,90.93
2023-11-25T09:53:49.195Z,89.04
2023-11-25T09:56:06.247Z,87.90
2023-11-25T09:58:23.178Z,87.65
2023-11-25T10:00:40.133Z,87.60
2023-11-25T10:02:57.406Z,86.80
2023-11-25T10:05:14.425Z,85.48
2023-11-25T10:07:31.362Z,86.00
2023-11-25T10:09:48.285Z,85.87
2023-11-25T10:12:05.177Z,85.29
2023-11-25T10:14:22.128Z,85.69
2023-11-25T10:16:39.036Z,85.66
2023-11-25T10:18:55.987Z,85.73
2023-11-25T10:21:12.874Z,86.19
2023-11-25T10:23:29.804Z,84.91
2023-11-25T10:25:46.730Z,84.66
2023-11-25T10:28:03.654Z,84.72
2023-11-25T10:30:20.515Z,84.47
2023-11-25T10:32:37.392Z,84.70
2023-11-25T10:34:54.863Z,84.44
2023-11-25T10:37:11.797Z,84.58
2023-11-25T10:39:28.687Z,83.51
2023-11-25T10:41:45.577Z,83.94
2023-11-25T10:44:02.536Z,84.77
2023-11-25T10:46:19.670Z,84.48
2023-11-25T10:48:36.580Z,83.98
2023-11-25T10:50:56.134Z,82.94
2023-11-25T10:53:14.065Z,83.92
2023-11-25T10:55:31.087Z,84.96
2023-11-25T10:57:48.062Z,84.28
2023-11-25T11:00:04.954Z,84.22
2023-11-25T11:02:21.937Z,83.59
2023-11-25T11:04:39.017Z,82.39
2023-11-25T11:06:55.910Z,82.21
2023-11-25T11:09:12.772Z,82.42
2023-11-25T11:11:29.629Z,80.64
2023-11-25T11:13:46.544Z,82.08
2023-11-25T11:16:03.522Z,80.39
2023-11-25T11:18:20.573Z,80.81
2023-11-25T11:20:37.637Z,80.07
2023-11-25T11:22:54.585Z,79.73
2023-11-25T11:25:11.509Z,78.73
2023-11-25T11:27:28.402Z,78.42
2023-11-25T11:29:45.317Z,79.30
2023-11-25T11:32:02.572Z,78.74
2023-11-25T11:34:19.626Z,77.80
2023-11-25T11:36:36.536Z,78.09
2023-11-25T11:38:53.421Z,78.01
2023-11-25T11:41:10.358Z,78.08
2023-11-25T11:43:27.260Z,78.17
2023-11-25T11:45:44.135Z,77.33
2023-11-25T11:48:01.073Z,77.27
2023-11-25T11:50:17.989Z,77.57
2023-11-25T11:52:34.870Z,76.97
2023-11-25T11:54:51.780Z,77.38
2023-11-25T11:57:08.657Z,77.02
2023-11-25T11:59:25.576Z,77.64
2023-11-25T12:01:42.459Z,76.50
2023-11-25T12:03:59.508Z,76.49
2023-11-25T12:06:16.418Z,76.71
2023-11-25T12:08:33.864Z,75.82
2023-11-25T12:10:50.748Z,76.68
2023-11-25T12:13:07.801Z,76.44
2023-11-25T12:15:24.700Z,76.62
2023-11-25T12:17:41.739Z,76.80
2023-11-25T12:19:58.697Z,76.21
2023-11-25T12:22:15.645Z,77.25
2023-11-25T12:24:32.523Z,76.97
2023-11-25T12:26:49.445Z,76.70
2023-11-25T12:29:06.346Z,76.45
2023-11-25T12:31:23.323Z,77.03
2023-11-25T12:33:40.341Z,77.36
2023-11-25T12:35:57.251Z,76.12
2023-11-25T12:38:16.152Z,75.39
2023-11-25T12:40:33.819Z,75.57
2023-11-25T12:42:50.772Z,75.63
2023-11-25T12:45:07.672Z,75.27
2023-11-25T12:47:24.695Z,76.32
2023-11-25T12:49:41.567Z,75.96
2023-11-25T12:51:58.425Z,76.03
2023-11-25T12:54:15.375Z,76.72
2023-11-25T12:56:32.366Z,74.73
2023-11-25T12:58:49.323Z,75.02
2023-11-25T13:01:06.237Z,76.18
2023-11-25T13:03:23.337Z,75.93
2023-11-25T13:05:40.333Z,76.64
2023-11-25T13:07:57.273Z,76.68
2023-11-25T13:10:14.202Z,76.31
2023-11-25T13:12:31.179Z,76.80
2023-11-25T13:14:48.072Z,76.57
2023-11-25T13:17:05.003Z,76.12
2023-11-25T13:19:21.912Z,76.29
2023-11-25T13:21:38.899Z,76.56
2023-11-25T13:23:55.923Z,76.67
2023-11-25T13:26:12.833Z,77.35
2023-11-25T13:28:29.992Z,75.71
2023-11-25T13:30:46.908Z,75.88
2023-11-25T13:33:04.341Z,75.62
2023-11-25T13:35:21.484Z,75.44
2023-11-25T13:37:38.491Z,75.65
2023-11-25T13:39:55.453Z,76.56
2023-11-25T13:42:12.586Z,75.34
2023-11-25T13:44:29.511Z,76.25
2023-11-25T13:46:46.536Z,75.45
2023-11-25T13:49:03.800Z,75.96
2023-11-25T13:51:20.709Z,76.85
2023-11-25T13:53:37.602Z,76.40
2023-11-25T13:55:54.531Z,75.96
2023-11-25T13:58:11.496Z,75.75
2023-11-25T14:00:29.482Z,75.90
2023-11-25T14:02:46.472Z,76.32
2023-11-25T14:05:03.470Z,76.18
2023-11-25T14:07:20.443Z,75.96
2023-11-25T14:09:38.390Z,76.00
2023-11-25T14:11:55.419Z,76.25
2023-11-25T14:14:12.379Z,75.98
2023-11-25T14:16:29.457Z,75.48
2023-11-25T14:18:46.418Z,74.50
2023-11-25T14:21:03.320Z,74.27
2023-11-25T14:23:20.275Z,74.95
2023-11-25T14:25:37.235Z,75.65
2023-11-25T14:27:54.209Z,75.82
2023-11-25T14:30:11.115Z,76.00
2023-11-25T14:32:28.022Z,76.35
2023-11-25T14:34:44.977Z,76.40
2023-11-25T14:37:01.880Z,76.93
2023-11-25T14:39:18.790Z,76.93
2023-11-25T14:41:36.761Z,76.94
2023-11-25T14:43:54.047Z,76.85
2023-11-25T14:46:11.036Z,76.83
2023-11-25T14:48:27.989Z,77.37
2023-11-25T14:50:44.911Z,77.70
2023-11-25T14:53:01.915Z,77.63
2023-11-25T14:55:23.244Z,78.46
2023-11-25T14:57:40.339Z,79.39
2023-11-25T14:59:57.228Z,79.81
2023-11-25T15:02:14.231Z,79.82
2023-11-25T15:04:31.683Z,80.86
2023-11-25T15:06:48.967Z,80.97
2023-11-25T15:09:05.913Z,80.76
2023-11-25T15:11:22.889Z,80.44
2023-11-25T15:13:39.793Z,80.34
2023-11-25T15:15:56.766Z,80.00
2023-11-25T15:18:14.534Z,80.20
2023-11-25T15:20:32.707Z,80.52
2023-11-25T15:22:49.619Z,80.13
2023-11-25T15:25:06.519Z,80.26
2023-11-25T15:27:23.420Z,80.48
2023-11-25T15:29:40.364Z,80.69
2023-11-25T15:31:57.423Z,80.73
2023-11-25T15:34:14.402Z,80.97
2023-11-25T15:36:31.320Z,81.10
2023-11-25T15:38:48.243Z,81.54
2023-11-25T15:41:11.472Z,81.80
2023-11-25T15:43:28.456Z,81.56
2023-11-25T15:45:45.418Z,81.48
2023-11-25T15:48:02.406Z,81.74
2023-11-25T15:50:19.287Z,81.54
2023-11-25T15:52:36.238Z,81.55
2023-11-25T15:54:53.151Z,81.40
2023-11-25T15:57:10.166Z,81.81
2023-11-25T15:59:27.088Z,82.19
2023-11-25T16:01:44.038Z,82.34
2023-11-25T16:04:01.058Z,82.34
2023-11-25T16:06:18.111Z,82.13
2023-11-25T16:08:34.999Z,82.24
2023-11-25T16:10:51.913Z,82.26
2023-11-25T16:13:08.880Z,82.30
2023-11-25T16:15:25.960Z,82.10
2023-11-25T16:17:42.924Z,82.10
2023-11-25T16:19:59.858Z,82.93
2023-11-25T16:22:16.758Z,82.34
2023-11-25T16:24:33.693Z,82.39
2023-11-25T16:26:55.152Z,82.65
2023-11-25T16:29:12.058Z,82.80
2023-11-25T16:31:31.848Z,83.28
2023-11-25T16:33:48.861Z,82.13
2023-11-25T16:36:14.472Z,82.43
2023-11-25T16:38:31.371Z,83.40
2023-11-25T16:40:48.243Z,83.54
2023-11-25T16:43:05.220Z,83.48
2023-11-25T16:45:22.518Z,83.36
2023-11-25T16:47:39.556Z,83.32
2023-11-25T16:50:03.085Z,83.96
2023-11-25T16:52:29.436Z,84.37
2023-11-25T16:54:55.635Z,84.26
2023-11-25T16:57:12.546Z,84.52
2023-11-25T16:59:47.023Z,84.46
2023-11-25T17:02:24.571Z,83.54
2023-11-25T17:04:41.721Z,83.50
2023-11-25T17:06:58.722Z,83.35
2023-11-25T17:09:29.852Z,83.31
2023-11-25T17:11:49.239Z,82.83
2023-11-25T17:14:06.205Z,83.27
2023-11-25T17:19:00.466Z,83.12
2023-11-25T17:23:58.894Z,83.32
2023-11-25T17:26:22.034Z,82.76
2023-11-25T17:28:38.895Z,82.19
2023-11-25T17:30:55.829Z,82.25
2023-11-25T17:33:12.707Z,81.61
2023-11-25T17:35:29.621Z,81.88
2023-11-25T17:37:46.529Z,81.97
2023-11-25T17:40:03.452Z,82.45
2023-11-25T17:42:20.473Z,82.58
2023-11-25T17:44:37.361Z,81.56
2023-11-25T17:47:00.434Z,80.99
2023-11-25T17:49:17.605Z,80.64
2023-11-25T17:51:34.524Z,80.28
2023-11-25T17:53:51.430Z,80.67
2023-11-25T17:56:08.374Z,81.14
2023-11-25T17:58:25.466Z,80.80
2023-11-25T18:00:42.331Z,80.63
2023-11-25T18:02:59.569Z,80.50
2023-11-25T18:05:16.735Z,80.59
2023-11-25T18:07:33.789Z,81.01
2023-11-25T18:09:50.724Z,80.92
2023-11-25T18:12:07.639Z,81.15
2023-11-25T18:14:25.219Z,81.36
2023-11-25T18:16:45.015Z,81.50
2023-11-25T18:19:02.684Z,81.33
2023-11-25T18:21:19.686Z,81.69
2023-11-25T18:23:36.563Z,81.74
2023-11-25T18:25:53.573Z,82.17
2023-11-25T18:28:14.003Z,82.00
2023-11-25T18:30:31.923Z,82.47
2023-11-25T18:32:48.865Z,82.58
2023-11-25T18:35:05.935Z,82.29
2023-11-25T18:37:22.835Z,83.14
2023-11-25T18:39:39.708Z,83.22
2023-11-25T18:41:56.634Z,83.54
2023-11-25T18:44:22.662Z,83.17
2023-11-25T18:46:39.766Z,83.04
2023-11-25T18:49:03.081Z,83.39
2023-11-25T18:51:19.955Z,83.27
2023-11-25T18:53:36.939Z,83.67
2023-11-25T18:55:54.487Z,83.93
2023-11-25T18:58:12.259Z,84.37
2023-11-25T19:00:29.314Z,84.08
2023-11-25T19:05:33.698Z,85.37
2023-11-25T19:07:50.580Z,85.17
2023-11-25T19:10:07.716Z,85.42
2023-11-25T19:12:24.849Z,85.47
2023-11-25T19:14:44.760Z,86.50
2023-11-25T19:17:01.724Z,85.88
2023-11-25T19:19:18.692Z,86.10
2023-11-25T19:21:35.625Z,86.55
2023-11-25T19:23:52.553Z,86.20
2023-11-25T19:26:09.503Z,86.67
2023-11-25T19:28:26.419Z,86.50
2023-11-25T19:30:43.674Z,86.81
2023-11-25T19:33:00.715Z,86.70
2023-11-25T19:35:17.773Z,86.58
2023-11-25T19:37:34.629Z,87.06
2023-11-25T19:39:51.555Z,87.63
2023-11-25T19:42:08.443Z,87.56
2023-11-25T19:44:25.297Z,87.32
2023-11-25T19:46:42.214Z,87.41
2023-11-25T19:48:59.183Z,86.83
2023-11-25T19:51:16.032Z,87.18
2023-11-25T19:53:49.441Z,86.49
2023-11-25T19:56:08.529Z,86.80
2023-11-25T19:58:25.451Z,87.04
2023-11-25T20:00:49.388Z,87.29
2023-11-25T20:03:12.989Z,87.04
2023-11-25T20:05:29.966Z,87.59
2023-11-25T20:07:47.053Z,87.53
2023-11-25T20:10:04.028Z,87.59
2023-11-25T20:12:20.931Z,89.65
2023-11-25T20:14:37.785Z,89.44
2023-11-25T20:16:54.848Z,90.06
2023-11-25T20:19:11.765Z,89.53
2023-11-25T20:21:28.644Z,90.22
2023-11-25T20:23:45.630Z,89.60
2023-11-25T20:26:02.585Z,89.71
2023-11-25T20:28:19.474Z,90.46
2023-11-25T20:30:36.343Z,90.57
2023-11-25T20:32:53.261Z,90.49
2023-11-25T20:35:10.354Z,89.97
2023-11-25T20:37:27.306Z,88.77
2023-11-25T20:39:44.237Z,87.92
2023-11-25T20:42:01.135Z,88.59
2023-11-25T20:44:18.074Z,88.18
2023-11-25T20:46:34.983Z,87.96
2023-11-25T20:48:51.877Z,88.14
2023-11-25T20:51:08.807Z,88.03
2023-11-25T20:53:25.744Z,88.33
2023-11-25T20:55:42.673Z,88.13
2023-11-25T20:57:59.585Z,88.06
2023-11-25T21:00:16.552Z,88.64
2023-11-25T21:02:33.580Z,89.44
2023-11-25T21:04:50.543Z,90.10
2023-11-25T21:07:07.431Z,90.10
2023-11-25T21:09:24.338Z,90.10
2023-11-25T21:11:41.263Z,89.83
2023-11-25T21:13:58.133Z,90.47
2023-11-25T21:16:16.107Z,90.85
2023-11-25T21:18:33.119Z,91.05
2023-11-25T21:20:50.025Z,90.50
2023-11-25T21:23:06.925Z,89.87
2023-11-25T21:25:23.823Z,89.82
2023-11-25T21:27:40.706Z,90.55
2023-11-25T21:29:57.621Z,89.71
2023-11-25T21:32:14.542Z,90.04
2023-11-25T21:34:31.535Z,90.26
2023-11-25T21:36:48.417Z,90.06
2023-11-25T21:39:05.325Z,90.50
2023-11-25T21:41:22.194Z,90.26
2023-11-25T21:43:39.151Z,89.70
2023-11-25T21:45:56.102Z,90.78
2023-11-25T21:48:13.036Z,91.39
2023-11-25T21:50:29.892Z,91.36
2023-11-25T21:52:46.947Z,91.11
2023-11-25T21:55:03.915Z,91.09
2023-11-25T21:57:20.809Z,91.06
2023-11-25T21:59:37.686Z,91.01
2023-11-25T22:01:54.751Z,90.90
2023-11-25T22:04:11.701Z,91.91
2023-11-25T22:06:28.647Z,91.17
2023-11-25T22:08:45.533Z,91.82
2023-11-25T22:11:02.460Z,92.58
2023-11-25T22:13:19.379Z,91.85
2023-11-25T22:15:37.568Z,91.76
2023-11-25T22:17:54.670Z,92.38
2023-11-25T22:20:11.629Z,92.26
2023-11-25T22:22:28.703Z,93.18
2023-11-25T22:24:45.635Z,92.84
2023-11-25T22:27:02.568Z,93.37
2023-11-25T22:29:19.507Z,93.39
2023-11-25T22:31:36.466Z,92.99
2023-11-25T22:33:53.425Z,92.52
2023-11-25T22:36:10.326Z,92.53
2023-11-25T22:38:28.638Z,92.56
2023-11-25T22:40:45.578Z,92.96
2023-11-25T22:43:02.492Z,92.79
2023-11-25T22:45:19.370Z,93.82
2023-11-25T22:47:36.315Z,93.10
2023-11-25T22:49:53.249Z,93.41
2023-11-25T22:52:10.142Z,93.70
2023-11-25T22:54:27.038Z,93.15
2023-11-25T22:56:43.895Z,93.51
2023-11-25T22:59:00.821Z,93.09
2023-11-25T23:01:17.838Z,92.56
2023-11-25T23:03:34.892Z,93.11
2023-11-25T23:05:51.923Z,93.60
2023-11-25T23:08:08.822Z,93.46
2023-11-25T23:10:25.739Z,93.01
2023-11-25T23:12:42.646Z,92.42
2023-11-25T23:14:59.583Z,92.76
2023-11-25T23:17:16.568Z,92.11
2023-11-25T23:19:33.465Z,93.59
2023-11-25T23:21:50.316Z,93.41
2023-11-25T23:24:07.289Z,92.85
2023-11-25T23:26:24.205Z,92.32
2023-11-25T23:28:41.093Z,91.82
2023-11-25T23:30:57.947Z,92.69
2023-11-25T23:33:14.898Z,93.09
2023-11-25T23:35:31.774Z,92.82
2023-11-25T23:37:48.783Z,93.39
2023-11-25T23:40:05.738Z,92.88
2023-11-25T23:42:22.611Z,92.73
2023-11-25T23:44:39.470Z,93.36
2023-11-25T23:46:56.380Z,93.48
2023-11-25T23:49:13.354Z,94.34
2023-11-25T23:51:30.279Z,94.39
2023-11-25T23:53:47.173Z,93.97
2023-11-25T23:56:04.083Z,94.31
2023-11-25T23:58:21.052Z,93.27
